Time;durP1;ratioP1;P1;durP2;ratioP2;P2;SDS_P1;SDS_P2;PMS_P1;PMS_P2;Temp;Humidity;BMP_temperature;BMP_pressure;BME280_temperature;BME280_humidity;BME280_pressure;Samples;Min_cycle;Max_cycle;Signal;HPM_P1;HPM_P2
2022/02/25 00:00:17;;;;;;;0.98;0.60;;;5.60;88.10;;;;;;5183079;28;20041;-33
2022/02/25 00:02:49;;;;;;;2.38;2.10;;;5.40;89.60;;;;;;5199732;28;20061;-33
2022/02/25 00:05:22;;;;;;;3.42;1.00;;;5.30;90.40;;;;;;5201097;28;20049;-33
2022/02/25 00:07:55;;;;;;;1.15;1.10;;;5.30;90.90;;;;;;5195910;28;20044;-33
2022/02/25 00:10:27;;;;;;;1.20;0.77;;;5.20;91.50;;;;;;5195246;28;20416;-33
2022/02/25 00:13:00;;;;;;;2.08;0.90;;;5.00;91.70;;;;;;5197399;28;20052;-32
2022/02/25 00:15:32;;;;;;;2.38;0.77;;;4.80;92.40;;;;;;5190608;28;20067;-32
2022/02/25 00:18:05;;;;;;;1.30;0.80;;;4.70;93.60;;;;;;5192745;28;20131;-32
2022/02/25 00:20:38;;;;;;;2.97;0.77;;;4.60;94.70;;;;;;5196945;28;20037;-32
2022/02/25 00:23:10;;;;;;;0.68;0.50;;;4.50;95.40;;;;;;5194766;28;20408;-32
2022/02/25 00:25:42;;;;;;;2.90;1.02;;;4.50;95.90;;;;;;5197283;28;20052;-32
2022/02/25 00:28:15;;;;;;;1.55;0.73;;;4.40;97.00;;;;;;5197518;28;20044;-33
2022/02/25 00:30:48;;;;;;;5.97;0.70;;;4.50;97.90;;;;;;5197918;28;20125;-32
2022/02/25 00:33:20;;;;;;;1.77;0.60;;;4.40;98.00;;;;;;5185364;28;20044;-33
2022/02/25 00:35:54;;;;;;;1.95;1.17;;;4.40;98.40;;;;;;5200742;28;20064;-32
2022/02/25 00:38:38;;;;;;;2.20;0.75;;;3.90;99.60;;;;;;5177739;23;20061;-87
2022/02/25 00:41:20;;;;;;;5.05;1.27;;;;;;;;;;5175724;28;20492;-88
2022/02/25 00:44:08;;;;;;;2.35;1.65;;;4.30;99.90;;;;;;5147766;28;20417;-88
2022/02/25 00:46:48;;;;;;;4.35;1.00;;;5.60;99.90;;;;;;5167583;28;20045;-88
2022/02/25 00:49:40;;;;;;;3.88;2.58;;;4.50;99.90;;;;;;5177053;28;20433;-88
2022/02/25 00:52:49;;;;;;;3.42;2.00;;;4.50;99.90;;;;;;5170818;28;20057;-88
2022/02/25 00:55:41;;;;;;;1.95;1.00;;;4.50;99.90;;;;;;5158119;28;20042;-88
2022/02/25 00:58:20;;;;;;;5.25;1.77;;;5.70;99.90;;;;;;5186542;28;20049;-89
2022/02/25 01:01:06;;;;;;;1.85;0.70;;;4.50;99.90;;;;;;5165316;28;20501;-87
2022/02/25 01:03:42;;;;;;;0.52;0.50;;;;;;;;;;5172845;28;20041;-88
2022/02/25 01:06:39;;;;;;;1.65;0.95;;;5.90;99.90;;;;;;5183250;28;20643;-88
2022/02/25 01:09:54;;;;;;;1.30;0.75;;;4.50;99.90;;;;;;5171042;28;20068;-87
2022/02/25 01:12:40;;;;;;;4.93;0.93;;;4.60;99.90;;;;;;5162093;28;20562;-88
2022/02/25 01:15:32;;;;;;;2.05;1.08;;;5.00;99.90;;;;;;5161979;28;20045;-88
2022/02/25 01:18:41;;;;;;;2.60;0.90;;;4.60;99.90;;;;;;5161516;28;20045;-88
2022/02/25 01:21:43;;;;;;;5.18;1.20;;;4.50;99.90;;;;;;5159257;28;20413;-87
2022/02/25 01:24:31;;;;;;;2.05;1.00;;;5.40;99.90;;;;;;5168001;28;20421;-88
2022/02/25 01:27:11;;;;;;;2.55;1.17;;;2.80;99.90;;;;;;5164289;28;20100;-87
2022/02/25 01:39:02;;;;;;;1.00;0.90;;;4.50;99.90;;;;;;5151878;28;20464;-88
2022/02/25 01:42:25;;;;;;;2.03;1.10;;;4.50;99.90;;;;;;5159769;28;20057;-87
2022/02/25 01:45:32;;;;;;;3.10;1.15;;;6.50;99.90;;;;;;5175461;28;20050;-88
2022/02/25 01:52:32;;;;;;;;;;;6.20;99.90;;;;;;5175399;28;21043;-88
2022/02/25 01:55:43;;;;;;;1.20;1.10;;;4.90;99.90;;;;;;5157336;28;20025;-88
2022/02/25 01:59:06;;;;;;;2.30;1.05;;;4.60;99.90;;;;;;5157389;28;20076;-88
2022/02/25 02:01:59;;;;;;;1.92;1.48;;;4.60;99.90;;;;;;5179414;28;20490;-89
2022/02/25 02:04:48;;;;;;;3.15;1.15;;;4.60;99.90;;;;;;5162297;28;20654;-88
2022/02/25 02:07:45;;;;;;;1.30;1.00;;;4.70;99.90;;;;;;5173955;28;20038;-88
2022/02/25 02:11:39;;;;;;;2.33;1.00;;;4.70;99.90;;;;;;5164864;28;20409;-87
2022/02/25 02:14:25;;;;;;;2.08;0.90;;;6.60;99.90;;;;;;5161687;28;20053;-88
2022/02/25 02:17:15;;;;;;;1.15;0.90;;;4.70;99.90;;;;;;5147335;28;20054;-88
2022/02/25 02:20:36;;;;;;;1.45;0.70;;;4.50;99.90;;;;;;5163289;28;20045;-88
2022/02/25 02:23:57;;;;;;;1.58;0.82;;;4.60;99.90;;;;;;5167985;28;20068;-89
2022/02/25 02:26:38;;;;;;;1.10;0.70;;;6.30;99.90;;;;;;5175158;28;20087;-89
2022/02/25 02:32:46;;;;;;;1.50;0.80;;;5.20;99.90;;;;;;5177826;28;20057;-88
2022/02/25 02:39:24;;;;;;;0.60;0.60;;;4.60;99.90;;;;;;5129071;28;20398;-89
2022/02/25 02:42:38;;;;;;;3.25;1.33;;;4.70;99.90;;;;;;5167786;28;20053;-88
2022/02/25 02:45:19;;;;;;;2.33;0.90;;;4.60;99.90;;;;;;5153941;28;20053;-88
2022/02/25 02:48:18;;;;;;;0.63;0.52;;;4.60;99.90;;;;;;5178609;28;20052;-90
2022/02/25 02:50:56;;;;;;;1.60;0.77;;;4.70;99.90;;;;;;5159859;28;20056;-88
2022/02/25 02:53:36;;;;;;;1.30;0.80;;;4.70;99.90;;;;;;5180410;28;20049;-89
2022/02/25 02:56:11;;;;;;;2.17;0.50;;;;;;;;;;5178323;28;20052;-89
2022/02/25 02:59:05;;;;;;;4.03;0.68;;;;;;;;;;5166044;28;20053;-88
2022/02/25 03:01:48;;;;;;;2.00;0.77;;;4.70;99.90;;;;;;5192766;28;20061;-90
2022/02/25 03:04:25;;;;;;;1.58;0.57;;;7.20;99.90;;;;;;5178304;28;20045;-89
2022/02/25 03:07:25;;;;;;;1.60;0.65;;;8.30;99.90;;;;;;5161962;28;20057;-87
2022/02/25 03:10:15;;;;;;;2.20;0.70;;;4.50;99.90;;;;;;5163191;28;20132;-88
2022/02/25 03:13:22;;;;;;;2.58;0.80;;;7.30;99.90;;;;;;5172976;28;20046;-88
2022/02/25 03:16:26;;;;;;;0.93;0.60;;;4.60;99.90;;;;;;5155978;28;20065;-88
2022/02/25 03:19:42;;;;;;;1.48;0.80;;;4.50;99.90;;;;;;5177245;28;20413;-87
2022/02/25 03:27:28;;;;;;;0.90;0.60;;;3.80;99.90;;;;;;5177688;28;20061;-88
2022/02/25 03:31:50;;;;;;;;;;;;;;;;;;;;;
2022/02/25 03:35:35;;;;;;;1.08;0.70;;;4.40;99.90;;;;;;5118340;28;20049;-88
2022/02/25 03:38:33;;;;;;;0.70;0.57;;;4.40;99.90;;;;;;5142105;28;20508;-88
2022/02/25 03:42:21;;;;;;;;;;;;;;;;;;;;;
2022/02/25 03:50:29;;;;;;;2.85;0.75;;;4.40;99.90;;;;;;5158876;28;20053;-88
2022/02/25 03:59:04;;;;;;;1.40;1.00;;;4.30;99.90;;;;;;5108915;28;20665;-88
2022/02/25 04:02:31;;;;;;;0.82;0.60;;;4.40;99.70;;;;;;5167615;28;20572;-88
2022/02/25 04:05:24;;;;;;;2.05;0.70;;;4.40;99.90;;;;;;5171572;28;20044;-88
2022/02/25 04:09:06;;;;;;;1.70;0.80;;;4.40;99.90;;;;;;5162603;28;20064;-88
2022/02/25 04:13:04;;;;;;;1.52;0.82;;;4.30;99.00;;;;;;5138018;28;20056;-86
2022/02/25 04:16:43;;;;;;;4.25;0.90;;;4.40;99.50;;;;;;5084713;28;20047;-87
2022/02/25 04:21:18;;;;;;;2.45;1.60;;;4.30;99.90;;;;;;5067035;28;20475;-87
2022/02/25 04:25:27;;;;;;;3.78;0.80;;;4.40;99.70;;;;;;5033928;29;20162;-86
2022/02/25 04:38:19;;;;;;;5.88;2.65;;;4.30;98.90;;;;;;5017192;29;20343;-88
2022/02/25 04:42:40;;;;;;;2.22;1.10;;;4.30;98.90;;;;;;4991384;29;20081;-89
2022/02/25 04:51:46;;;;;;;2.97;0.80;;;4.20;98.70;;;;;;4955880;29;20085;-86
2022/02/25 04:55:21;;;;;;;5.93;0.77;;;4.10;99.00;;;;;;4936114;29;20050;-88
2022/02/25 04:58:55;;;;;;;2.20;0.70;;;7.00;99.00;;;;;;4956515;29;20054;-88
2022/02/25 05:01:56;;;;;;;3.38;0.70;;;6.70;98.90;;;;;;4966737;29;20194;-87
2022/02/25 05:04:36;;;;;;;3.40;1.30;;;4.50;98.20;;;;;;5030907;29;20048;-87
2022/02/25 05:07:35;;;;;;;2.72;0.88;;;4.90;98.10;;;;;;5028381;29;20056;-89
2022/02/25 05:10:20;;;;;;;;;;;;;;;;;;;;;
2022/02/25 05:12:56;;;;;;;1.95;0.80;;;;;;;;;;5070785;28;20083;-89
2022/02/25 05:22:45;;;;;;;2.80;1.05;;;;;;;;;;5060447;28;20194;-88
2022/02/25 05:25:18;;;;;;;3.88;0.93;;;;;;;;;;5085734;28;20070;-87
2022/02/25 05:28:00;;;;;;;4.43;1.20;;;4.30;97.00;;;;;;5089323;28;20131;-88
2022/02/25 05:30:34;;;;;;;2.90;0.70;;;4.30;97.00;;;;;;5103490;28;20206;-87
2022/02/25 05:33:10;;;;;;;1.95;0.90;;;;;;;;;;5079144;28;20074;-88
2022/02/25 05:35:46;;;;;;;0.95;0.88;;;;;;;;;;5110878;28;20051;-86
2022/02/25 05:38:21;;;;;;;2.30;1.00;;;4.20;96.50;;;;;;5100244;28;20068;-88
2022/02/25 05:40:55;;;;;;;1.27;0.95;;;2.80;96.60;;;;;;5156980;28;20045;-87
2022/02/25 05:43:31;;;;;;;1.08;0.70;;;;;;;;;;5163153;28;20045;-87
2022/02/25 05:46:04;;;;;;;2.50;1.33;;;2.60;95.70;;;;;;5163758;28;20068;-87
2022/02/25 05:48:36;;;;;;;2.40;1.10;;;4.20;96.10;;;;;;5175233;28;20363;-88
2022/02/25 05:51:10;;;;;;;5.45;0.80;;;;;;;;;;5146095;28;20854;-87
2022/02/25 05:53:43;;;;;;;0.85;0.80;;;;;;;;;;5155822;28;20533;-87
2022/02/25 05:56:16;;;;;;;2.57;1.00;;;3.20;96.10;;;;;;5154748;28;20046;-87
2022/02/25 05:58:49;;;;;;;2.70;1.05;;;;;;;;;;5162257;28;20263;-86
2022/02/25 06:01:22;;;;;;;2.58;1.17;;;;;;;;;;5145471;28;20060;-86
2022/02/25 06:03:55;;;;;;;3.70;0.95;;;;;;;;;;5146481;28;20045;-86
2022/02/25 06:06:28;;;;;;;1.02;1.00;;;;;;;;;;5148141;28;20409;-86
2022/02/25 06:09:03;;;;;;;3.13;0.70;;;;;;;;;;5148801;28;20214;-86
2022/02/25 06:11:36;;;;;;;1.42;0.90;;;;;;;;;;5169568;28;20049;-87
2022/02/25 06:14:09;;;;;;;4.28;0.90;;;;;;;;;;5169535;28;20049;-87
2022/02/25 06:16:43;;;;;;;5.00;0.90;;;;;;;;;;5153448;28;20301;-86
2022/02/25 06:19:18;;;;;;;2.40;1.05;;;;;;;;;;5181823;28;20761;-86
2022/02/25 06:21:52;;;;;;;3.47;0.75;;;;;;;;;;5154314;28;20397;-86
2022/02/25 06:24:26;;;;;;;2.55;0.90;;;4.10;96.30;;;;;;5144050;28;20046;-87
2022/02/25 06:26:59;;;;;;;1.83;0.90;;;5.40;97.30;;;;;;5144227;28;20057;-87
2022/02/25 06:29:32;;;;;;;2.75;0.88;;;;;;;;;;5147875;28;20061;-87
2022/02/25 06:32:05;;;;;;;2.55;1.30;;;4.10;96.60;;;;;;5165642;28;20041;-90
2022/02/25 06:34:40;;;;;;;6.25;1.35;;;4.00;96.70;;;;;;5188298;28;20586;-89
2022/02/25 06:37:14;;;;;;;1.38;1.10;;;;;;;;;;5179686;28;20072;-89
2022/02/25 06:39:46;;;;;;;1.77;1.13;;;5.20;97.40;;;;;;5162920;28;20046;-88
2022/02/25 06:42:18;;;;;;;3.28;1.00;;;4.00;96.90;;;;;;5184776;28;20049;-89
2022/02/25 06:44:51;;;;;;;1.52;1.13;;;5.70;97.30;;;;;;5189336;28;20427;-88
2022/02/25 06:47:23;;;;;;;2.70;1.02;;;3.90;96.30;;;;;;5169026;28;20087;-90
2022/02/25 06:49:58;;;;;;;2.03;1.00;;;7.50;97.40;;;;;;5184829;28;20050;-89
2022/02/25 06:52:51;;;;;;;2.20;1.02;;;4.10;96.70;;;;;;5143595;28;20062;-86
2022/02/25 06:55:27;;;;;;;4.65;1.08;;;4.80;96.80;;;;;;5187454;28;20057;-85
2022/02/25 06:58:06;;;;;;;2.28;1.00;;;3.90;96.00;;;;;;5154003;28;20053;-86
2022/02/25 07:00:39;;;;;;;1.60;1.23;;;;;;;;;;5175585;28;20049;-86
2022/02/25 07:03:12;;;;;;;5.93;1.60;;;;;;;;;;5151833;28;20056;-85
2022/02/25 07:05:45;;;;;;;3.05;1.13;;;;;;;;;;5199457;28;20767;-86
2022/02/25 07:08:19;;;;;;;1.73;1.00;;;;;;;;;;5174657;28;20058;-86
2022/02/25 07:10:51;;;;;;;4.63;1.23;;;4.30;98.20;;;;;;5183291;28;20060;-86
2022/02/25 07:13:24;;;;;;;1.77;1.20;;;;;;;;;;5172167;28;20319;-86
2022/02/25 07:16:00;;;;;;;5.18;1.30;;;3.90;97.50;;;;;;5184219;28;20038;-85
2022/02/25 07:18:33;;;;;;;4.53;1.30;;;3.90;97.70;;;;;;5169988;28;20084;-86
2022/02/25 07:21:19;;;;;;;4.18;1.38;;;3.80;97.90;;;;;;5187782;28;20520;-89
2022/02/25 07:24:15;;;;;;;5.75;1.05;;;4.10;97.70;;;;;;5159736;28;20060;-88
2022/02/25 07:26:51;;;;;;;5.78;1.10;;;;;;;;;;5157676;28;20053;-88
2022/02/25 07:30:07;;;;;;;3.10;1.30;;;;;;;;;;5195776;28;20052;-89
2022/02/25 07:33:25;;;;;;;2.33;1.10;;;;;;;;;;5147231;28;20049;-88
2022/02/25 07:37:23;;;;;;;1.58;1.02;;;4.00;96.70;;;;;;5100607;28;20059;-88
2022/02/25 07:40:24;;;;;;;7.72;1.10;;;4.00;97.50;;;;;;5081132;28;20062;-85
2022/02/25 07:42:57;;;;;;;4.72;1.23;;;4.60;98.90;;;;;;5093584;28;20055;-85
2022/02/25 07:45:30;;;;;;;2.63;1.10;;;4.10;98.20;;;;;;5100999;28;20515;-84
2022/02/25 07:48:03;;;;;;;4.55;1.13;;;4.10;98.00;;;;;;5098601;28;20054;-83
2022/02/25 07:50:35;;;;;;;1.35;1.23;;;3.60;98.40;;;;;;5126520;28;20055;-83
2022/02/25 07:53:08;;;;;;;1.58;1.00;;;4.00;98.10;;;;;;5113205;28;20599;-85
2022/02/25 07:55:41;;;;;;;4.03;1.83;;;5.40;98.60;;;;;;5104390;28;20459;-86
2022/02/25 07:58:14;;;;;;;1.92;1.10;;;4.10;97.90;;;;;;5126403;28;20536;-85
2022/02/25 08:00:47;;;;;;;2.50;1.23;;;;;;;;;;5083383;28;20051;-86
2022/02/25 08:03:20;;;;;;;6.35;1.65;;;4.00;97.10;;;;;;5084430;28;20265;-86
2022/02/25 08:05:53;;;;;;;2.55;1.30;;;;;;;;;;5105086;28;20051;-88
2022/02/25 08:08:25;;;;;;;4.50;1.47;;;4.00;98.10;;;;;;5090729;28;20053;-86
2022/02/25 08:10:58;;;;;;;3.28;1.40;;;4.50;98.50;;;;;;5119804;28;20065;-86
2022/02/25 08:13:31;;;;;;;4.53;1.75;;;6.70;99.20;;;;;;5159737;28;20053;-86
2022/02/25 08:16:04;;;;;;;4.13;1.70;;;6.10;98.00;;;;;;5164742;28;20045;-86
2022/02/25 08:18:36;;;;;;;3.67;1.27;;;4.00;97.10;;;;;;5170323;28;20054;-87
2022/02/25 08:21:09;;;;;;;4.40;1.38;;;6.00;98.50;;;;;;5182223;28;20513;-86
2022/02/25 08:23:41;;;;;;;6.55;1.48;;;6.50;98.40;;;;;;5184316;28;20049;-86
2022/02/25 08:26:14;;;;;;;2.45;1.30;;;;;;;;;;5193784;28;20057;-86
2022/02/25 08:28:46;;;;;;;3.22;1.23;;;4.20;97.70;;;;;;5181022;28;20049;-87
2022/02/25 08:31:19;;;;;;;2.30;1.27;;;4.20;97.10;;;;;;5179318;28;20064;-86
2022/02/25 08:33:52;;;;;;;3.47;1.30;;;5.40;96.80;;;;;;5164225;28;20433;-87
2022/02/25 08:36:24;;;;;;;6.75;1.40;;;4.70;96.40;;;;;;5165919;28;20053;-87
2022/02/25 08:38:57;;;;;;;6.40;1.35;;;;;;;;;;5184726;28;20060;-87
2022/02/25 08:41:30;;;;;;;5.88;1.50;;;;;;;;;;5182787;28;20041;-87
2022/02/25 08:44:02;;;;;;;4.65;1.40;;;;;;;;;;5185211;28;20461;-86
2022/02/25 08:46:36;;;;;;;12.50;2.97;;;4.50;94.80;;;;;;5181092;28;20075;-86
2022/02/25 08:49:09;;;;;;;2.20;1.60;;;4.50;95.10;;;;;;5180847;28;20046;-86
2022/02/25 08:51:45;;;;;;;5.55;1.40;;;4.50;94.20;;;;;;5192677;23;20053;-34
2022/02/25 08:54:17;;;;;;;3.47;1.65;;;3.90;94.90;;;;;;5179909;28;20045;-33
2022/02/25 08:56:50;;;;;;;5.28;1.63;;;4.70;94.70;;;;;;5178373;28;20499;-34
2022/02/25 08:59:22;;;;;;;9.10;2.05;;;6.00;95.00;;;;;;5180616;28;20442;-34
2022/02/25 09:01:59;;;;;;;2.33;1.27;;;7.40;95.70;;;;;;5181025;28;20046;-34
2022/02/25 09:04:32;;;;;;;7.53;1.52;;;5.80;94.40;;;;;;5190305;23;20057;-43
2022/02/25 09:07:04;;;;;;;4.73;1.80;;;4.80;93.40;;;;;;5137409;28;20621;-44
2022/02/25 09:09:37;;;;;;;6.03;1.20;;;6.40;92.70;;;;;;5130233;28;20054;-40
2022/02/25 09:12:12;;;;;;;6.10;1.60;;;4.90;92.20;;;;;;5142630;28;20038;-43
2022/02/25 09:14:44;;;;;;;5.72;1.45;;;3.90;92.90;;;;;;5143968;28;20379;-43
2022/02/25 09:17:17;;;;;;;2.83;1.40;;;6.60;93.20;;;;;;5144966;28;20054;-41
2022/02/25 09:19:51;;;;;;;2.58;1.10;;;4.70;92.40;;;;;;5141028;28;20034;-47
2022/02/25 09:22:24;;;;;;;5.43;1.40;;;5.00;91.90;;;;;;5143312;28;20550;-40
2022/02/25 09:24:57;;;;;;;6.03;1.33;;;5.20;91.50;;;;;;5142698;28;20057;-44
2022/02/25 09:27:30;;;;;;;5.13;1.25;;;5.70;91.00;;;;;;5143004;28;20046;-45
2022/02/25 09:30:04;;;;;;;5.60;1.58;;;6.30;91.10;;;;;;5138836;28;21898;-40
2022/02/25 09:32:37;;;;;;;3.45;1.33;;;4.70;90.50;;;;;;5140614;28;20462;-48
2022/02/25 09:35:10;;;;;;;4.05;1.55;;;5.30;90.20;;;;;;5141327;28;20062;-41
2022/02/25 09:37:43;;;;;;;5.85;2.00;;;5.40;90.30;;;;;;5146047;28;20046;-45
2022/02/25 09:40:20;;;;;;;5.40;1.77;;;6.40;90.40;;;;;;5142908;28;20069;-47
2022/02/25 09:42:53;;;;;;;5.53;1.60;;;6.40;90.00;;;;;;5139777;28;20049;-39
2022/02/25 09:45:25;;;;;;;6.82;1.92;;;5.50;88.70;;;;;;5143230;28;20050;-44
2022/02/25 09:47:58;;;;;;;5.30;1.65;;;5.60;87.30;;;;;;5142893;28;20069;-45
2022/02/25 09:50:30;;;;;;;6.30;1.25;;;6.70;87.30;;;;;;5140578;28;20058;-40
2022/02/25 09:53:04;;;;;;;8.73;1.80;;;6.40;86.40;;;;;;5140320;28;20050;-41
2022/02/25 09:55:36;;;;;;;4.53;1.90;;;8.20;86.40;;;;;;5141581;28;20057;-41
2022/02/25 09:58:09;;;;;;;8.73;1.50;;;5.50;84.20;;;;;;5145557;28;20077;-41
2022/02/25 10:00:43;;;;;;;5.00;1.40;;;5.90;80.20;;;;;;5142770;28;20406;-40
2022/02/25 10:03:17;;;;;;;7.78;2.17;;;5.60;79.50;;;;;;5138698;28;20065;-48
2022/02/25 10:05:50;;;;;;;5.25;1.70;;;5.50;76.80;;;;;;5149218;28;20065;-40
2022/02/25 10:08:24;;;;;;;6.50;2.43;;;6.10;75.90;;;;;;5144157;28;20061;-41
2022/02/25 10:10:57;;;;;;;7.60;1.85;;;5.70;74.70;;;;;;5143430;28;20047;-41
2022/02/25 10:13:31;;;;;;;4.80;1.50;;;4.90;75.40;;;;;;5143345;28;20039;-45
2022/02/25 10:16:24;;;;;;;6.70;1.73;;;7.50;79.20;;;;;;5143569;28;20050;-44
2022/02/25 10:19:00;;;;;;;8.82;2.00;;;5.70;77.60;;;;;;5138148;28;20328;-45
2022/02/25 10:21:33;;;;;;;6.60;1.75;;;5.90;76.00;;;;;;5141595;28;20050;-40
2022/02/25 10:24:09;;;;;;;3.95;1.50;;;6.70;74.90;;;;;;5138389;28;20595;-40
2022/02/25 10:26:42;;;;;;;1.98;1.00;;;5.60;76.60;;;;;;5142749;28;20335;-41
2022/02/25 10:29:16;;;;;;;4.22;1.30;;;6.00;76.40;;;;;;5136196;28;20067;-49
2022/02/25 10:31:49;;;;;;;2.25;1.10;;;7.20;77.70;;;;;;5138474;28;20527;-43
2022/02/25 10:34:24;;;;;;;4.05;1.20;;;8.30;76.30;;;;;;5139754;28;20542;-41
2022/02/25 10:36:57;;;;;;;3.67;1.40;;;6.20;74.30;;;;;;5141121;28;20511;-46
2022/02/25 10:39:34;;;;;;;3.75;1.10;;;6.30;73.30;;;;;;5141450;28;20739;-45
2022/02/25 10:42:11;;;;;;;4.93;1.60;;;6.80;74.90;;;;;;5143139;28;20406;-42
2022/02/25 10:44:44;;;;;;;4.75;1.17;;;6.30;74.30;;;;;;5142535;28;24975;-42
2022/02/25 10:47:24;;;;;;;;;;;6.30;73.80;;;;;;5141886;28;20053;-46
2022/02/25 10:50:03;;;;;;;7.43;1.70;;;7.00;71.30;;;;;;5143779;28;19922;-45
2022/02/25 10:52:41;;;;;;;8.05;2.30;;;4.50;67.00;;;;;;5144223;28;20379;-45
2022/02/25 10:55:22;;;;;;;4.68;1.55;;;6.10;66.70;;;;;;5142810;28;20046;-41
2022/02/25 10:57:57;;;;;;;4.78;1.40;;;5.90;66.10;;;;;;5145062;28;20046;-42
2022/02/25 11:00:30;;;;;;;4.93;1.40;;;5.90;68.70;;;;;;5141052;28;20046;-43
2022/02/25 11:03:03;;;;;;;4.18;1.50;;;5.90;67.50;;;;;;5136085;28;20214;-46
2022/02/25 11:05:36;;;;;;;5.90;2.10;;;5.80;70.50;;;;;;5153609;28;20534;-42
2022/02/25 11:08:08;;;;;;;8.00;2.00;;;5.20;64.40;;;;;;5137704;28;20050;-42
2022/02/25 11:10:40;;;;;;;3.05;1.38;;;5.80;65.00;;;;;;5138623;28;20057;-45
2022/02/25 11:13:15;;;;;;;4.53;1.57;;;5.60;66.60;;;;;;5138571;28;20057;-42
2022/02/25 11:15:48;;;;;;;4.80;1.10;;;5.70;68.20;;;;;;5138485;28;20298;-45
2022/02/25 11:18:22;;;;;;;6.72;1.15;;;5.80;66.10;;;;;;5136855;28;20446;-48
2022/02/25 11:20:54;;;;;;;8.85;1.50;;;6.50;66.00;;;;;;5145397;28;20042;-48
2022/02/25 11:23:27;;;;;;;10.52;2.67;;;6.60;66.30;;;;;;5138344;28;20061;-43
2022/02/25 11:26:00;;;;;;;2.97;1.30;;;7.50;67.90;;;;;;5137892;28;20053;-41
2022/02/25 11:28:33;;;;;;;5.20;1.15;;;5.90;67.10;;;;;;5136911;28;20218;-43
2022/02/25 11:31:14;;;;;;;5.72;1.08;;;5.90;65.60;;;;;;5139578;28;20057;-43
2022/02/25 11:33:53;;;;;;;3.63;1.13;;;6.80;67.30;;;;;;5138542;28;20054;-42
2022/02/25 11:36:46;;;;;;;5.95;1.23;;;6.00;66.10;;;;;;5142749;28;20049;-43
2022/02/25 11:39:25;;;;;;;2.92;1.08;;;5.00;62.70;;;;;;5139256;28;20035;-44
2022/02/25 11:42:00;;;;;;;8.10;1.45;;;5.00;62.80;;;;;;5144227;28;20046;-43
2022/02/25 11:44:33;;;;;;;5.38;1.20;;;5.90;62.90;;;;;;5143131;28;20046;-41
2022/02/25 11:47:06;;;;;;;3.13;1.35;;;5.90;64.60;;;;;;5138081;28;20497;-42
2022/02/25 11:49:39;;;;;;;8.77;2.10;;;6.20;65.00;;;;;;5141669;28;20080;-40
2022/02/25 11:52:12;;;;;;;4.60;1.70;;;6.20;66.50;;;;;;5139577;28;20050;-42
2022/02/25 11:54:48;;;;;;;4.78;1.55;;;6.70;66.80;;;;;;5143850;28;20351;-40
2022/02/25 11:57:24;;;;;;;4.03;1.20;;;7.20;60.60;;;;;;5142952;28;20559;-40
2022/02/25 12:00:00;;;;;;;3.70;1.45;;;6.50;60.20;;;;;;5152708;28;20038;-43
2022/02/25 12:02:35;;;;;;;6.53;1.42;;;6.40;60.20;;;;;;5138714;28;20042;-41
2022/02/25 12:05:08;;;;;;;3.90;1.42;;;5.60;61.80;;;;;;5143655;28;20046;-43
2022/02/25 12:07:44;;;;;;;3.30;1.70;;;6.20;62.00;;;;;;5142283;28;20117;-45
2022/02/25 12:10:23;;;;;;;5.97;1.85;;;5.70;64.40;;;;;;5139282;28;20050;-44
2022/02/25 12:12:56;;;;;;;5.78;1.88;;;6.50;65.60;;;;;;5120559;28;21118;-44
2022/02/25 12:15:34;;;;;;;9.23;1.48;;;5.60;63.10;;;;;;5129200;28;20057;-44
2022/02/25 12:18:09;;;;;;;3.40;1.58;;;6.70;63.80;;;;;;5128368;28;20506;-43
2022/02/25 12:21:01;;;;;;;3.63;1.40;;;6.90;64.70;;;;;;5135219;28;20058;-48
2022/02/25 12:23:46;;;;;;;4.68;1.50;;;7.10;65.60;;;;;;5131736;28;20054;-46
2022/02/25 12:26:31;;;;;;;4.82;1.17;;;7.20;62.20;;;;;;5122001;28;20073;-43
2022/02/25 12:29:19;;;;;;;2.55;1.08;;;7.30;65.00;;;;;;5128630;28;20495;-44
2022/02/25 12:31:53;;;;;;;4.38;1.30;;;7.40;65.70;;;;;;5133954;28;20065;-45
2022/02/25 12:34:26;;;;;;;5.38;1.30;;;5.70;58.70;;;;;;5127002;28;21098;-41
2022/02/25 12:37:02;;;;;;;2.80;1.00;;;6.20;61.30;;;;;;5131993;28;20275;-48
2022/02/25 12:39:34;;;;;;;6.18;1.77;;;7.00;62.60;;;;;;5127206;28;20062;-43
2022/02/25 12:42:10;;;;;;;7.15;1.20;;;7.10;65.30;;;;;;5134845;28;20038;-43
2022/02/25 12:44:44;;;;;;;2.42;1.40;;;7.00;66.60;;;;;;5133147;28;20438;-41
2022/02/25 12:47:17;;;;;;;1.98;1.10;;;8.20;67.80;;;;;;5129624;28;20054;-46
2022/02/25 12:49:50;;;;;;;6.07;1.50;;;8.50;67.80;;;;;;5130762;28;20057;-43
2022/02/25 12:52:22;;;;;;;2.70;1.40;;;7.00;67.90;;;;;;5138830;28;20059;-41
2022/02/25 12:54:57;;;;;;;3.80;1.38;;;7.00;69.00;;;;;;5138046;28;20292;-41
2022/02/25 12:57:29;;;;;;;5.53;1.85;;;7.00;68.90;;;;;;5137671;28;20047;-46
2022/02/25 13:00:03;;;;;;;4.55;1.40;;;6.90;68.20;;;;;;5140623;28;20054;-48
2022/02/25 13:02:35;;;;;;;2.25;1.25;;;6.90;68.70;;;;;;5136658;28;20066;-40
2022/02/25 13:05:08;;;;;;;5.70;1.48;;;6.90;69.80;;;;;;5134123;28;20050;-49
2022/02/25 13:07:41;;;;;;;4.90;1.30;;;7.70;69.30;;;;;;5129625;28;20058;-48
2022/02/25 13:10:13;;;;;;;6.68;1.63;;;7.10;69.30;;;;;;5118711;28;20046;-41
2022/02/25 13:12:45;;;;;;;2.53;1.40;;;7.20;70.20;;;;;;5129570;28;20038;-49
2022/02/25 13:15:28;;;;;;;4.85;1.73;;;7.20;70.90;;;;;;5123401;28;20050;-49
2022/02/25 13:18:00;;;;;;;6.43;1.55;;;7.20;69.60;;;;;;5119352;28;20046;-50
2022/02/25 13:20:33;;;;;;;3.05;1.65;;;7.10;69.80;;;;;;5117879;28;20521;-42
2022/02/25 13:23:09;;;;;;;5.55;1.23;;;7.00;70.10;;;;;;5117819;28;20510;-48
2022/02/25 13:25:41;;;;;;;6.20;2.88;;;6.90;68.30;;;;;;5128767;28;20050;-42
2022/02/25 13:28:14;;;;;;;7.13;1.92;;;6.80;68.30;;;;;;5126383;28;25762;-48
2022/02/25 13:30:51;;;;;;;5.78;1.65;;;6.80;69.20;;;;;;5124937;28;20042;-51
2022/02/25 13:33:24;;;;;;;3.17;1.30;;;7.90;66.10;;;;;;5124669;28;20813;-45
2022/02/25 13:35:59;;;;;;;5.93;1.60;;;6.70;66.10;;;;;;5134822;28;20609;-41
2022/02/25 13:38:36;;;;;;;2.97;1.30;;;6.80;69.00;;;;;;5132158;28;20038;-48
2022/02/25 13:41:08;;;;;;;3.30;1.77;;;6.80;68.20;;;;;;5136891;28;20049;-48
2022/02/25 13:43:48;;;;;;;6.05;1.27;;;6.80;68.80;;;;;;5129800;28;20050;-41
2022/02/25 13:46:24;;;;;;;8.07;1.40;;;6.70;67.60;;;;;;5151323;28;20482;-41
2022/02/25 13:52:27;;;;;;;6.57;1.73;;;6.30;67.10;;;;;;5132828;28;20511;-41
2022/02/25 13:55:11;;;;;;;6.45;2.13;;;6.00;69.00;;;;;;5137977;28;20422;-44
2022/02/25 13:57:45;;;;;;;6.70;1.88;;;6.00;73.30;;;;;;5138130;28;20058;-40
2022/02/25 14:00:21;;;;;;;7.53;1.88;;;5.80;73.70;;;;;;5130276;28;20050;-47
2022/02/25 14:02:54;;;;;;;6.47;2.25;;;5.90;75.30;;;;;;5132890;28;20039;-46
2022/02/25 14:05:36;;;;;;;3.50;1.83;;;5.80;72.90;;;;;;5131280;28;20061;-49
2022/02/25 14:08:23;;;;;;;6.40;1.75;;;5.90;71.90;;;;;;5138971;28;20053;-41
2022/02/25 14:10:56;;;;;;;5.65;1.65;;;5.70;70.90;;;;;;5135126;28;20510;-45
2022/02/25 14:13:32;;;;;;;5.57;1.70;;;6.30;71.80;;;;;;5127780;28;20238;-50
2022/02/25 14:16:04;;;;;;;6.75;1.58;;;6.50;72.80;;;;;;5130501;28;20426;-44
2022/02/25 14:18:37;;;;;;;5.23;1.60;;;6.60;70.00;;;;;;5135742;28;20050;-42
2022/02/25 14:21:09;;;;;;;6.70;1.70;;;6.60;66.20;;;;;;5127066;28;20092;-43
2022/02/25 14:23:42;;;;;;;5.07;1.33;;;6.60;68.20;;;;;;5128179;28;20295;-43
2022/02/25 14:26:28;;;;;;;5.50;1.52;;;6.70;70.30;;;;;;5120758;28;20319;-51
2022/02/25 14:29:15;;;;;;;3.97;1.77;;;8.10;70.00;;;;;;5127171;28;20051;-42
2022/02/25 14:32:02;;;;;;;7.78;1.80;;;7.10;68.00;;;;;;5124583;28;20061;-44
2022/02/25 14:34:37;;;;;;;11.27;1.63;;;7.00;68.70;;;;;;5112900;28;20081;-43
2022/02/25 14:37:29;;;;;;;7.30;1.55;;;7.00;67.30;;;;;;5116551;28;20050;-49
2022/02/25 14:40:05;;;;;;;6.53;1.65;;;6.90;66.10;;;;;;5123776;28;20054;-46
2022/02/25 14:42:38;;;;;;;3.40;1.30;;;6.50;65.60;;;;;;5118445;28;21551;-44
2022/02/25 14:45:11;;;;;;;5.32;1.27;;;6.90;66.30;;;;;;5123455;28;20046;-43
2022/02/25 14:47:43;;;;;;;4.68;1.65;;;6.90;67.10;;;;;;5131255;28;20505;-40
2022/02/25 14:50:18;;;;;;;6.90;1.80;;;6.90;67.20;;;;;;5121146;28;20965;-44
2022/02/25 14:52:53;;;;;;;5.80;1.60;;;6.90;68.10;;;;;;5130852;28;20050;-45
2022/02/25 14:55:26;;;;;;;2.07;1.07;;;6.80;67.30;;;;;;4785780;28;10000165;-42
2022/02/25 14:57:59;;;;;;;8.32;1.55;;;6.80;67.20;;;;;;5137856;28;20046;-47
2022/02/25 15:00:34;;;;;;;8.40;2.15;;;7.60;67.00;;;;;;5133940;28;20409;-43
2022/02/25 15:03:09;;;;;;;4.88;1.73;;;6.70;67.10;;;;;;5131312;28;20062;-51
2022/02/25 15:05:43;;;;;;;7.45;2.30;;;4.90;64.60;;;;;;5158618;23;20051;-37
2022/02/25 15:08:15;;;;;;;7.93;1.63;;;8.10;71.00;;;;;;5185699;28;20047;-37
2022/02/25 15:10:48;;;;;;;7.40;1.80;;;6.30;70.30;;;;;;5181334;28;20061;-37
2022/02/25 15:13:20;;;;;;;11.52;2.20;;;6.20;70.80;;;;;;5187801;28;20052;-39
2022/02/25 15:15:55;;;;;;;5.90;2.05;;;5.90;72.40;;;;;;5189526;28;20405;-37
2022/02/25 15:18:34;;;;;;;9.80;2.40;;;5.00;74.90;;;;;;5190258;28;20061;-37
2022/02/25 15:21:06;;;;;;;11.40;4.05;;;5.80;75.30;;;;;;5196153;28;20041;-37
2022/02/25 15:23:39;;;;;;;6.68;2.72;;;5.60;78.70;;;;;;5183904;28;20049;-37
2022/02/25 15:26:12;;;;;;;14.47;5.43;;;5.60;80.70;;;;;;5181124;28;20044;-37
2022/02/25 15:28:44;;;;;;;7.65;2.80;;;5.60;82.30;;;;;;5181641;28;20948;-35
2022/02/25 15:31:17;;;;;;;10.80;3.60;;;5.60;83.40;;;;;;5188823;28;20148;-35
2022/02/25 15:33:50;;;;;;;7.15;2.88;;;3.10;83.40;;;;;;5156179;28;20049;-36